sensor_id;sensor_type;location;lat;lon;timestamp;pressure;altitude;pressure_sealevel;temperature;humidity
57885;BME280;43703;51.060;-0.086;2022-12-24T00:00:05;99305.12;;;6.56;83.88
57885;BME280;43703;51.060;-0.086;2022-12-24T00:02:29;99300.84;;;6.36;84.90
57885;BME280;43703;51.060;-0.086;2022-12-24T00:04:55;99299.77;;;6.57;84.11
57885;BME280;43703;51.060;-0.086;2022-12-24T00:07:20;99293.30;;;6.26;84.80
57885;BME280;43703;51.060;-0.086;2022-12-24T00:09:45;99292.76;;;6.70;82.14
57885;BME280;43703;51.060;-0.086;2022-12-24T00:12:10;99292.76;;;6.19;84.53
57885;BME280;43703;51.060;-0.086;2022-12-24T00:14:35;99298.23;;;5.46;87.76
57885;BME280;43703;51.060;-0.086;2022-12-24T00:17:00;99299.97;;;6.33;84.71
57885;BME280;43703;51.060;-0.086;2022-12-24T00:19:26;99304.95;;;5.84;83.92
57885;BME280;43703;51.060;-0.086;2022-12-24T00:21:52;99303.36;;;6.52;83.41
57885;BME280;43703;51.060;-0.086;2022-12-24T00:24:17;99307.97;;;5.85;86.48
57885;BME280;43703;51.060;-0.086;2022-12-24T00:26:43;99308.37;;;6.04;85.59
57885;BME280;43703;51.060;-0.086;2022-12-24T00:29:10;99309.41;;;6.26;83.38
57885;BME280;43703;51.060;-0.086;2022-12-24T00:31:34;99310.73;;;6.05;84.09
57885;BME280;43703;51.060;-0.086;2022-12-24T00:34:00;99313.66;;;5.76;84.40
57885;BME280;43703;51.060;-0.086;2022-12-24T00:36:25;99315.49;;;6.73;82.05
57885;BME280;43703;51.060;-0.086;2022-12-24T00:38:51;99319.43;;;6.66;81.04
57885;BME280;43703;51.060;-0.086;2022-12-24T00:41:17;99319.80;;;6.06;83.94
57885;BME280;43703;51.060;-0.086;2022-12-24T00:43:42;99315.61;;;5.82;83.38
57885;BME280;43703;51.060;-0.086;2022-12-24T00:46:08;99323.84;;;6.08;81.93
57885;BME280;43703;51.060;-0.086;2022-12-24T00:48:33;99334.99;;;5.99;84.44
57885;BME280;43703;51.060;-0.086;2022-12-24T00:50:58;99335.85;;;5.56;85.34
57885;BME280;43703;51.060;-0.086;2022-12-24T00:53:23;99335.31;;;5.74;85.03
57885;BME280;43703;51.060;-0.086;2022-12-24T00:55:48;99334.52;;;5.82;85.88
57885;BME280;43703;51.060;-0.086;2022-12-24T00:58:14;99336.79;;;5.50;86.30
57885;BME280;43703;51.060;-0.086;2022-12-24T01:00:39;99341.12;;;6.06;84.11
57885;BME280;43703;51.060;-0.086;2022-12-24T01:03:05;99341.11;;;5.62;84.71
57885;BME280;43703;51.060;-0.086;2022-12-24T01:05:30;99341.57;;;6.22;82.96
57885;BME280;43703;51.060;-0.086;2022-12-24T01:07:55;99343.43;;;6.50;81.58
57885;BME280;43703;51.060;-0.086;2022-12-24T01:10:21;99340.73;;;5.74;84.04
57885;BME280;43703;51.060;-0.086;2022-12-24T01:12:46;99340.80;;;5.86;82.87
57885;BME280;43703;51.060;-0.086;2022-12-24T01:15:13;99350.66;;;5.43;84.82
57885;BME280;43703;51.060;-0.086;2022-12-24T01:17:37;99355.58;;;5.50;86.65
57885;BME280;43703;51.060;-0.086;2022-12-24T01:20:05;99364.65;;;5.83;84.07
57885;BME280;43703;51.060;-0.086;2022-12-24T01:22:28;99361.59;;;5.26;88.60
57885;BME280;43703;51.060;-0.086;2022-12-24T01:24:53;99364.93;;;5.92;85.34
57885;BME280;43703;51.060;-0.086;2022-12-24T01:27:18;99361.01;;;5.71;84.62
57885;BME280;43703;51.060;-0.086;2022-12-24T01:29:43;99368.50;;;5.65;84.59
57885;BME280;43703;51.060;-0.086;2022-12-24T01:32:08;99366.68;;;5.83;84.05
57885;BME280;43703;51.060;-0.086;2022-12-24T01:34:33;99364.36;;;5.78;84.34
57885;BME280;43703;51.060;-0.086;2022-12-24T01:36:59;99363.85;;;6.34;82.74
57885;BME280;43703;51.060;-0.086;2022-12-24T01:39:24;99374.73;;;6.15;82.30
57885;BME280;43703;51.060;-0.086;2022-12-24T01:41:50;99377.32;;;6.03;82.97
57885;BME280;43703;51.060;-0.086;2022-12-24T01:44:17;99376.46;;;6.32;81.93
57885;BME280;43703;51.060;-0.086;2022-12-24T01:46:40;99380.03;;;5.86;83.46
57885;BME280;43703;51.060;-0.086;2022-12-24T01:49:08;99382.38;;;5.38;85.10
57885;BME280;43703;51.060;-0.086;2022-12-24T01:51:35;99384.15;;;5.98;83.49
57885;BME280;43703;51.060;-0.086;2022-12-24T01:54:02;99387.87;;;6.10;83.87
57885;BME280;43703;51.060;-0.086;2022-12-24T01:56:23;99391.63;;;6.01;84.57
57885;BME280;43703;51.060;-0.086;2022-12-24T01:58:55;99392.47;;;6.57;82.17
57885;BME280;43703;51.060;-0.086;2022-12-24T02:01:13;99395.14;;;5.98;84.79
57885;BME280;43703;51.060;-0.086;2022-12-24T02:03:39;99397.67;;;6.21;84.12
57885;BME280;43703;51.060;-0.086;2022-12-24T02:06:04;99391.01;;;6.07;83.73
57885;BME280;43703;51.060;-0.086;2022-12-24T02:08:29;99394.88;;;6.47;83.22
57885;BME280;43703;51.060;-0.086;2022-12-24T02:10:55;99399.09;;;7.22;80.87
57885;BME280;43703;51.060;-0.086;2022-12-24T02:13:21;99406.39;;;6.41;83.80
57885;BME280;43703;51.060;-0.086;2022-12-24T02:15:59;99410.19;;;6.64;82.31
57885;BME280;43703;51.060;-0.086;2022-12-24T02:18:19;99406.88;;;6.94;81.48
57885;BME280;43703;51.060;-0.086;2022-12-24T02:20:47;99412.37;;;7.62;81.48
57885;BME280;43703;51.060;-0.086;2022-12-24T02:27:56;99419.43;;;6.48;82.57
57885;BME280;43703;51.060;-0.086;2022-12-24T02:30:20;99414.73;;;6.50;84.04
57885;BME280;43703;51.060;-0.086;2022-12-24T02:32:55;99417.17;;;6.63;82.47
57885;BME280;43703;51.060;-0.086;2022-12-24T02:35:13;99405.90;;;6.80;81.93
57885;BME280;43703;51.060;-0.086;2022-12-24T02:37:38;99408.16;;;6.24;82.83
57885;BME280;43703;51.060;-0.086;2022-12-24T02:40:06;99413.36;;;6.68;80.72
57885;BME280;43703;51.060;-0.086;2022-12-24T02:42:29;99416.81;;;6.67;80.96
57885;BME280;43703;51.060;-0.086;2022-12-24T02:44:54;99418.43;;;6.48;80.95
57885;BME280;43703;51.060;-0.086;2022-12-24T02:47:19;99415.21;;;6.77;79.67
57885;BME280;43703;51.060;-0.086;2022-12-24T02:49:43;99414.59;;;6.09;81.74
57885;BME280;43703;51.060;-0.086;2022-12-24T02:54:33;99437.33;;;6.67;81.24
57885;BME280;43703;51.060;-0.086;2022-12-24T02:57:07;99445.44;;;5.98;83.34
57885;BME280;43703;51.060;-0.086;2022-12-24T02:59:34;99443.97;;;5.91;82.99
57885;BME280;43703;51.060;-0.086;2022-12-24T03:01:56;99441.02;;;6.50;80.98
57885;BME280;43703;51.060;-0.086;2022-12-24T03:04:21;99438.03;;;6.69;81.45
57885;BME280;43703;51.060;-0.086;2022-12-24T03:06:45;99442.03;;;5.66;84.32
57885;BME280;43703;51.060;-0.086;2022-12-24T03:09:13;99441.69;;;5.76;85.09
57885;BME280;43703;51.060;-0.086;2022-12-24T03:11:34;99446.84;;;6.61;83.27
57885;BME280;43703;51.060;-0.086;2022-12-24T03:13:58;99437.93;;;6.74;82.49
57885;BME280;43703;51.060;-0.086;2022-12-24T03:16:26;99428.09;;;6.28;81.10
57885;BME280;43703;51.060;-0.086;2022-12-24T03:18:50;99428.75;;;6.27;82.15
57885;BME280;43703;51.060;-0.086;2022-12-24T03:21:19;99437.68;;;6.59;80.80
57885;BME280;43703;51.060;-0.086;2022-12-24T03:23:40;99432.73;;;6.39;81.27
57885;BME280;43703;51.060;-0.086;2022-12-24T03:26:08;99433.50;;;6.35;79.94
57885;BME280;43703;51.060;-0.086;2022-12-24T03:28:31;99443.60;;;6.09;82.38
57885;BME280;43703;51.060;-0.086;2022-12-24T03:31:00;99443.16;;;5.81;83.63
57885;BME280;43703;51.060;-0.086;2022-12-24T03:33:21;99442.23;;;5.97;81.38
57885;BME280;43703;51.060;-0.086;2022-12-24T03:35:47;99444.88;;;5.70;82.16
57885;BME280;43703;51.060;-0.086;2022-12-24T03:38:12;99443.60;;;6.60;80.22
57885;BME280;43703;51.060;-0.086;2022-12-24T03:40:38;99442.97;;;6.09;82.00
57885;BME280;43703;51.060;-0.086;2022-12-24T03:43:04;99449.62;;;6.71;79.01
57885;BME280;43703;51.060;-0.086;2022-12-24T03:45:29;99459.23;;;6.22;77.37
57885;BME280;43703;51.060;-0.086;2022-12-24T03:47:54;99458.75;;;5.76;81.95
57885;BME280;43703;51.060;-0.086;2022-12-24T03:50:20;99448.45;;;5.17;82.26
57885;BME280;43703;51.060;-0.086;2022-12-24T03:52:45;99451.20;;;5.68;80.98
57885;BME280;43703;51.060;-0.086;2022-12-24T03:55:11;99462.05;;;5.81;80.04
57885;BME280;43703;51.060;-0.086;2022-12-24T03:57:36;99468.50;;;5.39;81.84
57885;BME280;43703;51.060;-0.086;2022-12-24T04:00:03;99474.62;;;5.99;80.65
57885;BME280;43703;51.060;-0.086;2022-12-24T04:02:28;99477.65;;;5.55;81.01
57885;BME280;43703;51.060;-0.086;2022-12-24T04:04:53;99481.17;;;5.59;81.71
57885;BME280;43703;51.060;-0.086;2022-12-24T04:07:18;99489.46;;;5.74;80.76
57885;BME280;43703;51.060;-0.086;2022-12-24T04:09:44;99478.67;;;6.43;78.61
57885;BME280;43703;51.060;-0.086;2022-12-24T04:12:09;99475.27;;;6.38;79.04
57885;BME280;43703;51.060;-0.086;2022-12-24T04:14:35;99463.28;;;5.71;81.78
57885;BME280;43703;51.060;-0.086;2022-12-24T04:17:00;99460.22;;;5.59;80.62
57885;BME280;43703;51.060;-0.086;2022-12-24T04:19:26;99464.86;;;5.40;83.49
57885;BME280;43703;51.060;-0.086;2022-12-24T04:21:51;99464.30;;;5.63;82.33
57885;BME280;43703;51.060;-0.086;2022-12-24T04:24:17;99474.43;;;5.49;81.95
57885;BME280;43703;51.060;-0.086;2022-12-24T04:26:41;99482.92;;;5.52;83.05
57885;BME280;43703;51.060;-0.086;2022-12-24T04:29:07;99482.16;;;6.29;79.88
57885;BME280;43703;51.060;-0.086;2022-12-24T04:31:32;99489.68;;;6.06;80.95
57885;BME280;43703;51.060;-0.086;2022-12-24T04:33:58;99486.04;;;6.50;78.76
57885;BME280;43703;51.060;-0.086;2022-12-24T04:36:23;99482.55;;;5.96;79.64
57885;BME280;43703;51.060;-0.086;2022-12-24T04:38:48;99479.93;;;5.40;81.32
57885;BME280;43703;51.060;-0.086;2022-12-24T04:41:16;99489.25;;;5.81;81.25
57885;BME280;43703;51.060;-0.086;2022-12-24T04:43:40;99486.49;;;5.73;80.60
57885;BME280;43703;51.060;-0.086;2022-12-24T04:46:07;99483.81;;;5.57;80.07
57885;BME280;43703;51.060;-0.086;2022-12-24T04:48:31;99488.74;;;5.84;80.05
57885;BME280;43703;51.060;-0.086;2022-12-24T04:50:56;99497.26;;;5.60;80.33
57885;BME280;43703;51.060;-0.086;2022-12-24T04:53:22;99503.08;;;5.94;80.58
57885;BME280;43703;51.060;-0.086;2022-12-24T04:55:48;99515.48;;;5.76;79.79
57885;BME280;43703;51.060;-0.086;2022-12-24T04:58:14;99519.46;;;5.73;81.29
57885;BME280;43703;51.060;-0.086;2022-12-24T05:00:39;99518.36;;;5.51;80.45
57885;BME280;43703;51.060;-0.086;2022-12-24T05:03:03;99521.49;;;5.50;81.20
57885;BME280;43703;51.060;-0.086;2022-12-24T05:05:29;99516.13;;;5.50;80.88
57885;BME280;43703;51.060;-0.086;2022-12-24T05:07:55;99518.91;;;5.38;82.54
57885;BME280;43703;51.060;-0.086;2022-12-24T05:10:21;99523.66;;;5.59;81.53
57885;BME280;43703;51.060;-0.086;2022-12-24T05:12:46;99525.59;;;5.24;80.86
57885;BME280;43703;51.060;-0.086;2022-12-24T05:15:11;99521.88;;;5.33;82.44
57885;BME280;43703;51.060;-0.086;2022-12-24T05:17:37;99527.96;;;5.81;82.28
57885;BME280;43703;51.060;-0.086;2022-12-24T05:20:03;99530.63;;;4.99;84.86
57885;BME280;43703;51.060;-0.086;2022-12-24T05:22:27;99526.63;;;5.60;82.64
57885;BME280;43703;51.060;-0.086;2022-12-24T05:24:53;99522.45;;;5.91;82.99
57885;BME280;43703;51.060;-0.086;2022-12-24T05:27:18;99525.33;;;4.45;86.37
57885;BME280;43703;51.060;-0.086;2022-12-24T05:29:43;99519.57;;;5.57;83.00
57885;BME280;43703;51.060;-0.086;2022-12-24T05:32:09;99522.54;;;5.08;84.73
57885;BME280;43703;51.060;-0.086;2022-12-24T05:34:34;99523.52;;;4.64;85.44
57885;BME280;43703;51.060;-0.086;2022-12-24T05:36:59;99520.69;;;4.50;85.47
57885;BME280;43703;51.060;-0.086;2022-12-24T05:39:25;99523.74;;;4.90;84.82
57885;BME280;43703;51.060;-0.086;2022-12-24T05:41:50;99523.40;;;5.20;83.08
57885;BME280;43703;51.060;-0.086;2022-12-24T05:44:16;99524.23;;;5.23;82.97
57885;BME280;43703;51.060;-0.086;2022-12-24T05:46:41;99529.74;;;6.03;79.84
57885;BME280;43703;51.060;-0.086;2022-12-24T05:49:07;99532.15;;;5.22;80.92
57885;BME280;43703;51.060;-0.086;2022-12-24T05:51:32;99541.26;;;5.19;81.98
57885;BME280;43703;51.060;-0.086;2022-12-24T05:53:58;99552.51;;;4.46;83.58
57885;BME280;43703;51.060;-0.086;2022-12-24T05:56:24;99555.77;;;4.73;83.70
57885;BME280;43703;51.060;-0.086;2022-12-24T05:58:49;99559.34;;;5.59;82.08
57885;BME280;43703;51.060;-0.086;2022-12-24T06:01:14;99561.58;;;4.92;83.06
57885;BME280;43703;51.060;-0.086;2022-12-24T06:03:39;99563.16;;;5.46;81.74
57885;BME280;43703;51.060;-0.086;2022-12-24T06:06:07;99567.44;;;5.52;80.90
57885;BME280;43703;51.060;-0.086;2022-12-24T06:08:31;99567.18;;;5.67;79.80
57885;BME280;43703;51.060;-0.086;2022-12-24T06:10:57;99568.00;;;4.79;81.32
57885;BME280;43703;51.060;-0.086;2022-12-24T06:13:21;99568.06;;;5.42;79.98
57885;BME280;43703;51.060;-0.086;2022-12-24T06:15:47;99568.07;;;4.98;82.88
57885;BME280;43703;51.060;-0.086;2022-12-24T06:18:12;99573.39;;;5.01;81.26
57885;BME280;43703;51.060;-0.086;2022-12-24T06:20:38;99579.84;;;5.08;79.74
57885;BME280;43703;51.060;-0.086;2022-12-24T06:23:03;99572.82;;;5.72;77.44
57885;BME280;43703;51.060;-0.086;2022-12-24T06:25:28;99570.67;;;4.54;80.04
57885;BME280;43703;51.060;-0.086;2022-12-24T06:27:53;99570.81;;;5.49;79.85
57885;BME280;43703;51.060;-0.086;2022-12-24T06:30:18;99578.11;;;5.64;78.75
57885;BME280;43703;51.060;-0.086;2022-12-24T06:32:44;99580.48;;;4.58;81.65
57885;BME280;43703;51.060;-0.086;2022-12-24T06:35:08;99583.34;;;4.82;80.33
57885;BME280;43703;51.060;-0.086;2022-12-24T06:37:34;99584.46;;;5.07;81.03
57885;BME280;43703;51.060;-0.086;2022-12-24T06:40:00;99585.49;;;4.92;79.34
57885;BME280;43703;51.060;-0.086;2022-12-24T06:42:25;99588.42;;;5.15;79.86
57885;BME280;43703;51.060;-0.086;2022-12-24T06:44:50;99594.17;;;5.56;78.86
57885;BME280;43703;51.060;-0.086;2022-12-24T06:47:16;99596.29;;;5.13;78.79
57885;BME280;43703;51.060;-0.086;2022-12-24T06:49:41;99599.08;;;5.00;79.33
57885;BME280;43703;51.060;-0.086;2022-12-24T06:52:07;99598.52;;;4.85;81.36
57885;BME280;43703;51.060;-0.086;2022-12-24T06:54:32;99600.67;;;4.55;80.88
57885;BME280;43703;51.060;-0.086;2022-12-24T06:56:57;99601.41;;;5.00;79.09
57885;BME280;43703;51.060;-0.086;2022-12-24T06:59:23;99606.90;;;5.20;78.49
57885;BME280;43703;51.060;-0.086;2022-12-24T07:01:48;99611.83;;;4.98;78.18
57885;BME280;43703;51.060;-0.086;2022-12-24T07:04:13;99610.89;;;5.04;76.63
57885;BME280;43703;51.060;-0.086;2022-12-24T07:06:38;99613.66;;;4.61;78.51
57885;BME280;43703;51.060;-0.086;2022-12-24T07:09:03;99615.16;;;4.70;78.93
57885;BME280;43703;51.060;-0.086;2022-12-24T07:11:28;99622.22;;;4.50;81.48
57885;BME280;43703;51.060;-0.086;2022-12-24T07:13:53;99621.99;;;5.18;78.76
57885;BME280;43703;51.060;-0.086;2022-12-24T07:16:19;99624.26;;;5.27;77.75
57885;BME280;43703;51.060;-0.086;2022-12-24T07:18:44;99621.54;;;4.40;78.57
57885;BME280;43703;51.060;-0.086;2022-12-24T07:21:10;99620.32;;;4.30;79.29
57885;BME280;43703;51.060;-0.086;2022-12-24T07:23:35;99619.54;;;4.64;80.31
57885;BME280;43703;51.060;-0.086;2022-12-24T07:26:01;99614.15;;;4.38;78.34
57885;BME280;43703;51.060;-0.086;2022-12-24T07:28:25;99617.69;;;4.55;79.20
57885;BME280;43703;51.060;-0.086;2022-12-24T07:30:50;99626.97;;;4.63;78.87
57885;BME280;43703;51.060;-0.086;2022-12-24T07:33:15;99624.31;;;4.73;78.50
57885;BME280;43703;51.060;-0.086;2022-12-24T07:35:41;99631.61;;;4.35;77.43
57885;BME280;43703;51.060;-0.086;2022-12-24T07:38:06;99640.17;;;4.42;77.72
57885;BME280;43703;51.060;-0.086;2022-12-24T07:40:33;99644.65;;;4.33;79.12
57885;BME280;43703;51.060;-0.086;2022-12-24T07:42:56;99648.91;;;4.36;80.76
57885;BME280;43703;51.060;-0.086;2022-12-24T07:45:21;99656.31;;;4.35;81.61
57885;BME280;43703;51.060;-0.086;2022-12-24T07:47:47;99660.32;;;4.61;79.35
57885;BME280;43703;51.060;-0.086;2022-12-24T07:50:12;99669.60;;;4.69;79.32
57885;BME280;43703;51.060;-0.086;2022-12-24T07:52:38;99666.19;;;4.68;78.75
57885;BME280;43703;51.060;-0.086;2022-12-24T07:55:03;99666.50;;;4.60;79.46
57885;BME280;43703;51.060;-0.086;2022-12-24T07:57:28;99665.09;;;4.17;79.77
57885;BME280;43703;51.060;-0.086;2022-12-24T07:59:54;99659.24;;;4.31;79.85
57885;BME280;43703;51.060;-0.086;2022-12-24T08:02:19;99660.14;;;5.28;78.94
57885;BME280;43703;51.060;-0.086;2022-12-24T08:04:44;99653.94;;;5.17;77.48
57885;BME280;43703;51.060;-0.086;2022-12-24T08:07:09;99655.68;;;4.88;77.62
57885;BME280;43703;51.060;-0.086;2022-12-24T08:09:36;99660.14;;;4.88;76.51
57885;BME280;43703;51.060;-0.086;2022-12-24T08:12:00;99669.63;;;4.13;80.32
57885;BME280;43703;51.060;-0.086;2022-12-24T08:14:26;99677.75;;;4.06;79.68
57885;BME280;43703;51.060;-0.086;2022-12-24T08:16:51;99673.36;;;5.03;78.35
57885;BME280;43703;51.060;-0.086;2022-12-24T08:19:16;99674.41;;;4.46;76.84
57885;BME280;43703;51.060;-0.086;2022-12-24T08:21:41;99677.64;;;4.33;78.50
57885;BME280;43703;51.060;-0.086;2022-12-24T08:24:07;99683.16;;;4.89;76.15
57885;BME280;43703;51.060;-0.086;2022-12-24T08:26:32;99685.26;;;4.62;76.96
57885;BME280;43703;51.060;-0.086;2022-12-24T08:28:58;99690.51;;;4.94;76.56
57885;BME280;43703;51.060;-0.086;2022-12-24T08:31:23;99694.85;;;4.72;75.29
57885;BME280;43703;51.060;-0.086;2022-12-24T08:33:49;99690.90;;;4.54;75.67
57885;BME280;43703;51.060;-0.086;2022-12-24T08:36:14;99698.08;;;4.90;76.41
57885;BME280;43703;51.060;-0.086;2022-12-24T08:38:40;99697.49;;;4.78;75.64
57885;BME280;43703;51.060;-0.086;2022-12-24T08:41:05;99702.73;;;4.82;77.76
57885;BME280;43703;51.060;-0.086;2022-12-24T08:43:30;99707.31;;;5.10;78.27
57885;BME280;43703;51.060;-0.086;2022-12-24T08:45:59;99705.98;;;5.10;76.14
57885;BME280;43703;51.060;-0.086;2022-12-24T08:48:21;99708.88;;;5.25;77.38
57885;BME280;43703;51.060;-0.086;2022-12-24T08:50:46;99712.39;;;5.20;78.45
57885;BME280;43703;51.060;-0.086;2022-12-24T08:53:11;99713.52;;;5.78;75.64
57885;BME280;43703;51.060;-0.086;2022-12-24T08:55:36;99706.31;;;5.57;74.82
57885;BME280;43703;51.060;-0.086;2022-12-24T08:58:02;99712.37;;;5.33;74.02
57885;BME280;43703;51.060;-0.086;2022-12-24T09:00:28;99704.75;;;6.14;73.23
57885;BME280;43703;51.060;-0.086;2022-12-24T09:02:53;99703.51;;;5.76;72.73
57885;BME280;43703;51.060;-0.086;2022-12-24T09:05:19;99708.01;;;5.72;72.97
57885;BME280;43703;51.060;-0.086;2022-12-24T09:07:44;99708.63;;;5.70;73.16
57885;BME280;43703;51.060;-0.086;2022-12-24T09:10:10;99710.59;;;5.77;72.98
57885;BME280;43703;51.060;-0.086;2022-12-24T09:12:34;99711.33;;;5.93;72.87
57885;BME280;43703;51.060;-0.086;2022-12-24T09:14:59;99713.56;;;6.07;72.78
57885;BME280;43703;51.060;-0.086;2022-12-24T09:17:24;99708.17;;;6.30;72.89
57885;BME280;43703;51.060;-0.086;2022-12-24T09:19:50;99695.22;;;6.34;72.68
57885;BME280;43703;51.060;-0.086;2022-12-24T09:22:15;99692.50;;;6.25;72.82
57885;BME280;43703;51.060;-0.086;2022-12-24T09:24:41;99695.72;;;6.60;72.48
57885;BME280;43703;51.060;-0.086;2022-12-24T09:27:06;99698.18;;;6.48;72.37
57885;BME280;43703;51.060;-0.086;2022-12-24T09:29:31;99702.00;;;6.46;72.90
57885;BME280;43703;51.060;-0.086;2022-12-24T09:31:56;99702.60;;;6.85;72.70
57885;BME280;43703;51.060;-0.086;2022-12-24T09:34:21;99702.60;;;6.61;72.48
57885;BME280;43703;51.060;-0.086;2022-12-24T09:36:47;99695.27;;;7.44;71.75
57885;BME280;43703;51.060;-0.086;2022-12-24T09:39:12;99702.52;;;7.40;71.53
57885;BME280;43703;51.060;-0.086;2022-12-24T09:41:44;99700.32;;;7.07;71.17
57885;BME280;43703;51.060;-0.086;2022-12-24T09:44:16;99698.96;;;7.10;72.29
57885;BME280;43703;51.060;-0.086;2022-12-24T09:46:32;99707.95;;;7.20;71.24
57885;BME280;43703;51.060;-0.086;2022-12-24T09:48:57;99712.38;;;7.02;72.16
57885;BME280;43703;51.060;-0.086;2022-12-24T09:51:25;99713.69;;;7.08;72.22
57885;BME280;43703;51.060;-0.086;2022-12-24T09:53:49;99714.67;;;7.38;72.68
57885;BME280;43703;51.060;-0.086;2022-12-24T09:56:13;99716.80;;;7.05;72.05
57885;BME280;43703;51.060;-0.086;2022-12-24T09:58:39;99710.61;;;7.07;72.19
57885;BME280;43703;51.060;-0.086;2022-12-24T10:01:01;99716.37;;;7.62;71.61
57885;BME280;43703;51.060;-0.086;2022-12-24T10:03:26;99716.72;;;7.41;72.70
57885;BME280;43703;51.060;-0.086;2022-12-24T10:06:04;99721.90;;;7.34;72.34
57885;BME280;43703;51.060;-0.086;2022-12-24T10:08:25;99725.83;;;6.79;72.58
57885;BME280;43703;51.060;-0.086;2022-12-24T10:10:49;99729.63;;;7.68;72.68
57885;BME280;43703;51.060;-0.086;2022-12-24T10:13:15;99734.93;;;7.59;71.94
57885;BME280;43703;51.060;-0.086;2022-12-24T10:15:38;99738.68;;;6.99;71.82
57885;BME280;43703;51.060;-0.086;2022-12-24T10:18:11;99739.57;;;7.35;72.01
57885;BME280;43703;51.060;-0.086;2022-12-24T10:20:32;99737.94;;;8.34;70.33
57885;BME280;43703;51.060;-0.086;2022-12-24T10:22:56;99738.60;;;8.06;69.99
57885;BME280;43703;51.060;-0.086;2022-12-24T10:25:20;99740.22;;;7.44;70.75
57885;BME280;43703;51.060;-0.086;2022-12-24T10:27:42;99741.77;;;7.38;71.71
57885;BME280;43703;51.060;-0.086;2022-12-24T10:30:13;99744.87;;;6.88;71.81
57885;BME280;43703;51.060;-0.086;2022-12-24T10:32:33;99744.63;;;8.65;69.94
57885;BME280;43703;51.060;-0.086;2022-12-24T10:34:59;99748.12;;;8.11;70.37
57885;BME280;43703;51.060;-0.086;2022-12-24T10:37:28;99744.55;;;7.97;69.69
57885;BME280;43703;51.060;-0.086;2022-12-24T10:39:48;99746.81;;;8.67;68.81
57885;BME280;43703;51.060;-0.086;2022-12-24T10:42:14;99748.69;;;7.21;71.78
57885;BME280;43703;51.060;-0.086;2022-12-24T10:44:38;99747.23;;;7.35;72.15
57885;BME280;43703;51.060;-0.086;2022-12-24T10:47:06;99752.15;;;6.32;73.64
57885;BME280;43703;51.060;-0.086;2022-12-24T10:49:35;99750.66;;;6.73;72.70
57885;BME280;43703;51.060;-0.086;2022-12-24T10:51:57;99756.60;;;6.76;72.88
57885;BME280;43703;51.060;-0.086;2022-12-24T10:54:22;99756.81;;;5.75;75.20
57885;BME280;43703;51.060;-0.086;2022-12-24T10:56:47;99755.79;;;6.79;74.50
57885;BME280;43703;51.060;-0.086;2022-12-24T11:01:42;99754.89;;;6.71;73.60
57885;BME280;43703;51.060;-0.086;2022-12-24T11:04:01;99757.55;;;7.87;72.29
57885;BME280;43703;51.060;-0.086;2022-12-24T11:06:26;99751.51;;;7.54;72.55
57885;BME280;43703;51.060;-0.086;2022-12-24T11:08:52;99752.20;;;7.81;70.97
57885;BME280;43703;51.060;-0.086;2022-12-24T11:11:18;99753.13;;;8.29;70.37
57885;BME280;43703;51.060;-0.086;2022-12-24T11:13:44;99758.51;;;7.93;69.76
57885;BME280;43703;51.060;-0.086;2022-12-24T11:16:15;99760.62;;;8.54;71.09
57885;BME280;43703;51.060;-0.086;2022-12-24T11:18:34;99762.13;;;8.73;70.70
57885;BME280;43703;51.060;-0.086;2022-12-24T11:20:58;99769.27;;;7.82;71.16
57885;BME280;43703;51.060;-0.086;2022-12-24T11:23:23;99767.04;;;7.71;71.66
57885;BME280;43703;51.060;-0.086;2022-12-24T11:25:50;99766.45;;;7.83;70.81
57885;BME280;43703;51.060;-0.086;2022-12-24T11:28:20;99761.71;;;8.40;71.26
57885;BME280;43703;51.060;-0.086;2022-12-24T11:30:39;99760.10;;;8.98;70.21
57885;BME280;43703;51.060;-0.086;2022-12-24T11:35:32;99752.84;;;9.49;70.06
57885;BME280;43703;51.060;-0.086;2022-12-24T11:40:23;99744.16;;;8.89;69.08
57885;BME280;43703;51.060;-0.086;2022-12-24T11:42:48;99745.31;;;8.68;69.86
57885;BME280;43703;51.060;-0.086;2022-12-24T11:45:18;99745.17;;;8.35;70.17
57885;BME280;43703;51.060;-0.086;2022-12-24T11:47:39;99743.35;;;8.96;70.47
57885;BME280;43703;51.060;-0.086;2022-12-24T11:52:29;99745.49;;;9.22;69.67
57885;BME280;43703;51.060;-0.086;2022-12-24T11:55:06;99751.36;;;9.84;68.20
57885;BME280;43703;51.060;-0.086;2022-12-24T11:57:22;99750.41;;;9.14;68.92
57885;BME280;43703;51.060;-0.086;2022-12-24T11:59:47;99749.05;;;9.30;70.64
57885;BME280;43703;51.060;-0.086;2022-12-24T12:02:17;99747.18;;;10.01;69.03
57885;BME280;43703;51.060;-0.086;2022-12-24T12:04:38;99746.18;;;9.36;70.99
57885;BME280;43703;51.060;-0.086;2022-12-24T12:07:05;99748.46;;;9.62;70.90
57885;BME280;43703;51.060;-0.086;2022-12-24T12:09:30;99736.53;;;10.37;68.42
57885;BME280;43703;51.060;-0.086;2022-12-24T12:11:57;99731.67;;;10.58;67.65
57885;BME280;43703;51.060;-0.086;2022-12-24T12:14:22;99726.19;;;9.92;70.64
57885;BME280;43703;51.060;-0.086;2022-12-24T12:16:47;99727.88;;;9.54;71.72
57885;BME280;43703;51.060;-0.086;2022-12-24T12:19:10;99739.84;;;9.32;72.18
57885;BME280;43703;51.060;-0.086;2022-12-24T12:21:40;99743.89;;;10.11;69.49
57885;BME280;43703;51.060;-0.086;2022-12-24T12:24:05;99746.97;;;9.52;70.58
57885;BME280;43703;51.060;-0.086;2022-12-24T12:26:28;99743.49;;;9.53;71.91
57885;BME280;43703;51.060;-0.086;2022-12-24T12:28:55;99738.23;;;9.65;70.52
57885;BME280;43703;51.060;-0.086;2022-12-24T12:31:21;99730.93;;;10.79;69.96
57885;BME280;43703;51.060;-0.086;2022-12-24T12:33:47;99733.76;;;10.48;70.84
57885;BME280;43703;51.060;-0.086;2022-12-24T12:36:10;99735.43;;;9.82;71.07
57885;BME280;43703;51.060;-0.086;2022-12-24T12:38:35;99734.53;;;9.88;71.22
57885;BME280;43703;51.060;-0.086;2022-12-24T12:41:10;99728.99;;;10.44;69.33
57885;BME280;43703;51.060;-0.086;2022-12-24T12:43:38;99717.73;;;10.25;70.34
57885;BME280;43703;51.060;-0.086;2022-12-24T12:45:55;99715.83;;;10.28;70.38
57885;BME280;43703;51.060;-0.086;2022-12-24T12:50:48;99720.28;;;10.30;70.49
57885;BME280;43703;51.060;-0.086;2022-12-24T12:53:23;99717.32;;;10.18;69.98
57885;BME280;43703;51.060;-0.086;2022-12-24T12:55:42;99709.14;;;10.93;68.45
57885;BME280;43703;51.060;-0.086;2022-12-24T12:58:03;99707.33;;;10.55;68.81
57885;BME280;43703;51.060;-0.086;2022-12-24T13:00:26;99708.47;;;10.31;70.07
57885;BME280;43703;51.060;-0.086;2022-12-24T13:07:55;99717.32;;;9.35;73.04
57885;BME280;43703;51.060;-0.086;2022-12-24T13:10:25;99710.48;;;9.39;71.07
57885;BME280;43703;51.060;-0.086;2022-12-24T13:12:50;99707.35;;;9.69;71.99